Time;durP1;ratioP1;P1;durP2;ratioP2;P2;SDS_P1;SDS_P2;PMS_P1;PMS_P2;Temp;Humidity;BMP_temperature;BMP_pressure;BME280_temperature;BME280_humidity;BME280_pressure;Samples;Min_cycle;Max_cycle;Signal;HPM_P1;HPM_P2
2021/12/30 04:03:06;;;;;;;53.53;19.15;;;11.90;95.60;;;;;;5113192;27;20528;-38
2021/12/30 04:05:32;;;;;;;50.88;20.13;;;12.00;95.60;;;;;;5111998;28;20023;-37
2021/12/30 04:07:59;;;;;;;48.00;16.48;;;12.00;95.50;;;;;;5113478;28;20024;-38
2021/12/30 04:10:24;;;;;;;47.20;15.00;;;12.10;95.30;;;;;;5112306;28;20080;-37
2021/12/30 04:12:52;;;;;;;40.45;14.70;;;12.10;95.30;;;;;;5111952;28;20023;-38
2021/12/30 04:15:17;;;;;;;39.85;14.00;;;12.10;95.20;;;;;;5111414;28;20028;-37
2021/12/30 04:17:43;;;;;;;38.88;14.68;;;12.20;95.20;;;;;;5112676;28;20051;-37
2021/12/30 04:20:11;;;;;;;44.72;14.70;;;12.30;95.10;;;;;;5113047;28;20024;-37
2021/12/30 04:22:38;;;;;;;44.42;15.98;;;12.30;95.20;;;;;;5112580;28;20396;-38
2021/12/30 04:25:07;;;;;;;41.75;14.15;;;12.30;95.30;;;;;;5111812;28;20103;-37
2021/12/30 04:27:34;;;;;;;31.85;16.33;;;12.30;95.40;;;;;;5112659;28;20058;-37
2021/12/30 04:30:00;;;;;;;27.60;14.05;;;12.30;95.40;;;;;;5111762;28;20379;-38
2021/12/30 04:32:25;;;;;;;34.55;17.60;;;12.30;95.60;;;;;;5112722;28;20026;-38
2021/12/30 04:34:51;;;;;;;33.15;14.27;;;12.30;95.70;;;;;;5110347;28;20038;-38
2021/12/30 04:37:17;;;;;;;34.47;15.18;;;12.30;95.70;;;;;;5112180;28;20053;-38
2021/12/30 04:39:43;;;;;;;44.13;18.75;;;12.30;95.80;;;;;;5110331;28;20046;-37
2021/12/30 04:42:08;;;;;;;39.83;16.95;;;12.30;95.90;;;;;;5111853;28;20463;-38
2021/12/30 04:44:34;;;;;;;43.55;18.13;;;12.30;95.90;;;;;;5110269;28;20042;-37
2021/12/30 04:47:00;;;;;;;33.80;15.93;;;12.30;95.80;;;;;;5112548;28;20049;-38
2021/12/30 04:49:26;;;;;;;38.28;17.13;;;12.30;95.80;;;;;;5111602;28;20027;-38
2021/12/30 04:51:52;;;;;;;37.67;17.65;;;12.40;95.80;;;;;;5111133;28;20028;-38
2021/12/30 04:54:18;;;;;;;45.28;16.70;;;12.30;95.70;;;;;;5111147;28;20031;-38
2021/12/30 04:56:45;;;;;;;44.25;17.50;;;12.30;95.90;;;;;;5112769;28;20030;-38
2021/12/30 04:59:11;;;;;;;44.38;19.23;;;12.30;96.00;;;;;;5111967;28;20031;-37
2021/12/30 05:01:38;;;;;;;42.47;19.65;;;12.40;96.10;;;;;;5110937;28;20048;-40
2021/12/30 05:04:04;;;;;;;45.95;17.92;;;12.30;96.00;;;;;;5109910;28;20032;-38
2021/12/30 05:06:32;;;;;;;44.05;20.02;;;12.30;96.00;;;;;;5111485;28;20034;-38
2021/12/30 05:08:59;;;;;;;43.47;21.15;;;12.30;96.10;;;;;;5111776;28;20016;-38
2021/12/30 05:11:25;;;;;;;37.90;18.20;;;12.30;96.10;;;;;;5112309;28;20047;-38
2021/12/30 05:13:50;;;;;;;46.47;18.08;;;12.30;96.20;;;;;;5101704;28;20077;-38
2021/12/30 05:16:17;;;;;;;32.97;15.57;;;12.30;96.20;;;;;;5098335;28;20048;-38
2021/12/30 05:18:43;;;;;;;36.90;17.77;;;12.30;96.20;;;;;;5096960;28;20024;-38
2021/12/30 05:21:10;;;;;;;40.25;16.60;;;12.30;96.30;;;;;;5097435;28;20123;-38
2021/12/30 05:23:36;;;;;;;30.17;14.40;;;12.40;96.40;;;;;;5096999;28;20052;-38
2021/12/30 05:26:03;;;;;;;26.90;11.30;;;12.30;96.50;;;;;;5097381;28;20024;-37
2021/12/30 05:28:28;;;;;;;24.27;10.50;;;12.30;96.60;;;;;;5097200;28;20024;-37
2021/12/30 05:30:54;;;;;;;30.52;10.18;;;12.30;96.80;;;;;;5097249;28;20099;-37
2021/12/30 05:33:20;;;;;;;15.93;9.98;;;12.40;97.00;;;;;;5097263;28;20025;-37
2021/12/30 05:35:45;;;;;;;18.85;8.48;;;12.40;97.00;;;;;;5097134;28;20016;-38
2021/12/30 05:38:14;;;;;;;17.88;9.48;;;12.40;97.10;;;;;;5096415;28;20019;-37
2021/12/30 05:40:39;;;;;;;14.88;8.95;;;12.40;97.20;;;;;;5095892;28;20464;-38
2021/12/30 05:43:05;;;;;;;13.95;8.68;;;12.40;97.20;;;;;;5097766;28;20031;-38
2021/12/30 05:45:31;;;;;;;15.63;10.60;;;12.40;97.40;;;;;;5096670;28;20031;-38
2021/12/30 05:47:56;;;;;;;18.38;10.35;;;12.40;97.50;;;;;;5097263;28;20020;-38
2021/12/30 05:50:25;;;;;;;15.52;8.93;;;12.50;97.60;;;;;;5097559;28;20013;-37
2021/12/30 05:52:51;;;;;;;14.82;9.13;;;12.40;97.60;;;;;;5096391;28;20099;-37
2021/12/30 05:55:18;;;;;;;14.60;10.20;;;12.40;97.60;;;;;;5097005;28;20443;-38
2021/12/30 05:57:44;;;;;;;17.40;10.18;;;12.50;97.60;;;;;;5096076;28;20028;-38
2021/12/30 06:00:14;;;;;;;18.83;11.60;;;12.50;97.50;;;;;;5096633;28;20495;-38
2021/12/30 06:02:39;;;;;;;14.27;9.82;;;12.40;97.40;;;;;;5096437;28;20032;-38
2021/12/30 06:05:06;;;;;;;12.93;8.90;;;12.50;97.50;;;;;;5097072;28;20088;-38
2021/12/30 06:07:32;;;;;;;13.82;6.78;;;12.50;97.50;;;;;;5096553;28;20049;-38
2021/12/30 06:09:57;;;;;;;9.05;4.72;;;12.40;97.40;;;;;;5097530;28;20103;-38
2021/12/30 06:12:23;;;;;;;9.48;5.35;;;12.40;97.40;;;;;;5096694;28;20101;-38
2021/12/30 06:14:49;;;;;;;12.68;4.80;;;12.40;97.50;;;;;;5097025;28;20034;-38
2021/12/30 06:17:15;;;;;;;10.82;5.05;;;12.50;97.50;;;;;;5096131;28;20024;-40
2021/12/30 06:19:42;;;;;;;7.53;4.45;;;12.50;97.50;;;;;;5096645;28;20059;-39
2021/12/30 06:22:12;;;;;;;6.82;4.30;;;12.50;97.40;;;;;;5095667;28;20471;-39
2021/12/30 06:24:38;;;;;;;8.50;4.63;;;12.40;97.50;;;;;;5095644;28;20486;-39
2021/12/30 06:27:03;;;;;;;7.90;4.80;;;12.40;97.50;;;;;;5097316;28;20024;-39
2021/12/30 06:29:29;;;;;;;8.82;4.68;;;12.40;97.50;;;;;;5096457;28;20016;-39
2021/12/30 06:31:55;;;;;;;6.72;4.75;;;12.40;97.50;;;;;;5096684;28;20357;-39
2021/12/30 06:34:20;;;;;;;7.50;5.57;;;12.50;97.60;;;;;;5095822;28;20024;-39
2021/12/30 06:36:46;;;;;;;14.00;6.85;;;12.50;97.70;;;;;;5095743;28;20020;-39
2021/12/30 06:39:12;;;;;;;15.18;9.25;;;12.60;97.70;;;;;;5096136;28;20077;-39
2021/12/30 06:41:38;;;;;;;13.45;10.15;;;12.60;97.70;;;;;;5095949;28;20029;-39
2021/12/30 06:44:04;;;;;;;17.42;11.05;;;12.60;97.70;;;;;;5096464;28;20020;-39
2021/12/30 06:46:29;;;;;;;17.20;10.77;;;12.70;97.70;;;;;;5095494;28;20086;-39
2021/12/30 06:48:55;;;;;;;18.38;12.95;;;12.70;97.70;;;;;;5094437;28;20020;-39
2021/12/30 06:51:26;;;;;;;19.23;12.57;;;12.80;97.70;;;;;;5095214;28;20024;-40
2021/12/30 06:53:54;;;;;;;26.13;14.73;;;12.80;97.70;;;;;;5096362;28;20028;-39
2021/12/30 06:56:21;;;;;;;22.95;15.02;;;12.80;97.60;;;;;;5095239;28;20027;-39
2021/12/30 06:58:48;;;;;;;25.05;16.25;;;12.80;97.60;;;;;;5094918;28;20494;-38
2021/12/30 07:01:13;;;;;;;21.20;13.45;;;12.90;97.50;;;;;;5095609;28;20044;-38
2021/12/30 07:03:39;;;;;;;25.70;16.05;;;12.90;97.50;;;;;;5095502;28;20525;-39
2021/12/30 07:06:05;;;;;;;25.58;16.15;;;13.00;97.40;;;;;;5094432;28;20459;-39
2021/12/30 07:08:31;;;;;;;27.17;16.77;;;13.00;97.40;;;;;;5095840;28;20059;-39
2021/12/30 07:10:56;;;;;;;28.10;16.88;;;13.00;97.40;;;;;;5095861;28;20024;-38
2021/12/30 07:13:22;;;;;;;22.17;15.73;;;13.10;97.30;;;;;;5094531;28;20020;-39
2021/12/30 07:15:48;;;;;;;26.90;15.57;;;13.20;97.10;;;;;;5094236;28;20051;-39
2021/12/30 07:18:14;;;;;;;22.23;15.68;;;13.20;97.10;;;;;;5095086;28;20020;-38
2021/12/30 07:20:39;;;;;;;22.13;16.17;;;13.20;97.00;;;;;;5094617;28;20024;-38
2021/12/30 07:23:08;;;;;;;23.20;17.00;;;13.30;96.80;;;;;;5094442;28;20387;-38
2021/12/30 07:25:34;;;;;;;21.15;15.85;;;13.30;96.70;;;;;;5094846;28;20392;-40
2021/12/30 07:28:01;;;;;;;22.60;16.70;;;13.30;96.50;;;;;;5094228;28;20089;-38
2021/12/30 07:30:27;;;;;;;18.90;15.25;;;13.40;96.40;;;;;;5093119;28;20032;-38
2021/12/30 07:32:53;;;;;;;16.73;12.68;;;13.40;96.40;;;;;;5093922;28;20093;-37
2021/12/30 07:35:20;;;;;;;21.35;17.58;;;13.40;96.20;;;;;;5094947;28;20032;-39
2021/12/30 07:37:47;;;;;;;15.55;12.70;;;13.40;96.10;;;;;;5093556;28;20024;-37
2021/12/30 07:40:14;;;;;;;13.43;11.20;;;13.50;96.00;;;;;;5094898;28;20038;-38
2021/12/30 07:42:40;;;;;;;16.65;13.00;;;13.50;95.90;;;;;;5094775;28;20024;-38
2021/12/30 07:45:06;;;;;;;14.25;10.20;;;13.50;95.70;;;;;;5094425;28;20020;-37
2021/12/30 07:47:32;;;;;;;15.02;11.52;;;13.50;95.60;;;;;;5094240;28;20027;-38
2021/12/30 07:49:58;;;;;;;13.90;11.43;;;13.50;95.60;;;;;;5093724;28;20020;-38
2021/12/30 07:52:24;;;;;;;15.38;11.45;;;13.60;95.40;;;;;;5093288;28;20066;-39
2021/12/30 07:54:50;;;;;;;14.02;11.65;;;13.60;95.50;;;;;;5093285;28;20031;-39
2021/12/30 07:57:21;;;;;;;13.25;9.27;;;13.60;95.40;;;;;;5094462;28;20043;-38
2021/12/30 07:59:51;;;;;;;11.40;8.57;;;13.50;95.70;;;;;;5092897;28;20133;-38
2021/12/30 14:03:14;;;;;;;21.85;5.68;;;14.80;87.00;;;;;;5131997;27;20106;-39
2021/12/30 14:05:44;;;;;;;9.35;3.03;;;14.80;87.00;;;;;;5131410;28;20406;-37
2021/12/30 14:08:12;;;;;;;6.13;2.67;;;14.80;87.00;;;;;;5131431;28;20137;-38
2021/12/30 14:10:46;;;;;;;8.60;2.95;;;14.80;87.00;;;;;;5131517;28;20441;-39
2021/12/30 14:13:13;;;;;;;4.50;3.30;;;14.80;86.90;;;;;;5130933;28;20026;-38
2021/12/30 14:15:38;;;;;;;4.28;2.50;;;14.80;87.10;;;;;;5112267;28;20039;-38
2021/12/30 14:18:08;;;;;;;2.67;2.20;;;14.80;86.90;;;;;;5130895;28;20471;-40
2021/12/30 14:20:35;;;;;;;3.80;2.03;;;14.80;87.10;;;;;;5131074;28;20058;-39
2021/12/30 14:23:01;;;;;;;5.30;2.97;;;14.80;86.90;;;;;;5131208;28;20131;-38
2021/12/30 14:25:35;;;;;;;6.88;2.95;;;14.80;87.00;;;;;;5112546;28;20028;-45
2021/12/30 14:28:16;;;;;;;7.15;2.65;;;14.80;86.90;;;;;;5131481;28;20309;-39
2021/12/30 14:30:41;;;;;;;2.47;2.28;;;14.80;86.90;;;;;;5112211;28;20446;-38
2021/12/30 14:33:33;;;;;;;6.65;3.17;;;14.80;86.80;;;;;;5112496;28;20023;-39
2021/12/30 14:36:11;;;;;;;7.72;2.88;;;14.80;86.70;;;;;;5119925;28;20368;-37
2021/12/30 14:38:37;;;;;;;5.82;2.60;;;14.80;86.70;;;;;;5111623;28;20131;-37
2021/12/30 14:41:22;;;;;;;4.97;2.35;;;14.70;86.90;;;;;;5130396;28;20102;-38
2021/12/30 14:44:09;;;;;;;6.43;2.65;;;14.80;86.60;;;;;;5130586;28;20043;-38
2021/12/30 14:47:15;;;;;;;5.43;3.42;;;14.80;86.90;;;;;;5130782;28;20020;-38
2021/12/30 14:49:58;;;;;;;3.30;2.25;;;14.70;86.90;;;;;;5126100;27;20099;-38
2021/12/30 14:52:40;;;;;;;7.47;3.05;;;14.70;86.70;;;;;;5130565;28;20076;-37
2021/12/30 14:55:25;;;;;;;3.45;2.47;;;14.80;86.60;;;;;;5130257;28;20028;-39
2021/12/30 14:57:54;;;;;;;4.30;2.20;;;14.80;86.10;;;;;;5130238;28;20023;-37
2021/12/30 15:00:23;;;;;;;5.72;2.63;;;14.70;86.30;;;;;;5130254;28;20032;-38
2021/12/30 15:02:49;;;;;;;5.32;2.20;;;14.80;86.30;;;;;;5129845;28;20043;-38
2021/12/30 15:05:18;;;;;;;3.65;2.22;;;14.80;85.80;;;;;;5130815;28;20512;-37
2021/12/30 15:07:44;;;;;;;4.72;2.80;;;14.70;86.20;;;;;;5131526;28;20019;-38
2021/12/30 15:10:14;;;;;;;3.10;2.05;;;14.80;86.30;;;;;;5112237;28;20023;-37
2021/12/30 15:12:42;;;;;;;7.28;2.92;;;14.70;86.30;;;;;;5126384;28;20035;-38
2021/12/30 15:15:11;;;;;;;4.70;2.42;;;14.70;86.50;;;;;;5116485;28;20027;-38
2021/12/30 15:17:38;;;;;;;8.40;2.95;;;14.80;86.20;;;;;;5117658;28;20131;-38
2021/12/30 15:20:08;;;;;;;7.43;2.72;;;14.80;86.10;;;;;;5117154;28;20381;-37
2021/12/30 15:22:34;;;;;;;5.63;3.60;;;14.80;86.20;;;;;;5117478;28;20024;-38
2021/12/30 15:25:01;;;;;;;4.18;2.17;;;14.70;86.40;;;;;;5115868;28;20031;-39
2021/12/30 15:27:27;;;;;;;6.15;2.35;;;14.70;86.30;;;;;;5115440;28;20602;-38
2021/12/30 15:29:53;;;;;;;5.18;3.03;;;14.70;86.30;;;;;;5118084;28;20115;-38
2021/12/30 15:32:19;;;;;;;11.35;3.67;;;14.70;86.30;;;;;;5098786;28;20020;-38
2021/12/30 15:34:50;;;;;;;6.32;2.47;;;14.70;86.50;;;;;;5097936;28;20111;-37
2021/12/30 15:37:16;;;;;;;5.95;2.45;;;14.70;86.20;;;;;;5116234;28;20052;-38
2021/12/30 15:39:41;;;;;;;8.00;3.08;;;14.80;86.20;;;;;;5097113;28;20028;-38
2021/12/30 15:42:07;;;;;;;4.65;2.88;;;14.60;86.30;;;;;;5116047;28;20122;-39
2021/12/30 15:44:33;;;;;;;8.27;2.58;;;14.70;86.10;;;;;;5116190;28;20038;-38
2021/12/30 15:46:59;;;;;;;4.63;2.50;;;14.70;86.30;;;;;;5098484;28;20043;-38
2021/12/30 15:49:24;;;;;;;5.03;3.22;;;14.70;86.10;;;;;;5123578;28;20440;-49
2021/12/30 15:51:50;;;;;;;6.57;3.10;;;14.70;86.30;;;;;;5121570;28;20028;-53
2021/12/30 15:54:17;;;;;;;6.53;2.80;;;14.80;86.00;;;;;;5116787;28;20034;-50
2021/12/30 15:56:44;;;;;;;9.02;2.45;;;14.80;86.00;;;;;;5116745;28;20031;-48
2021/12/30 15:59:12;;;;;;;8.68;2.38;;;14.80;86.00;;;;;;5115941;28;20043;-51
2021/12/30 16:01:39;;;;;;;6.65;3.10;;;14.70;86.10;;;;;;5093719;28;20058;-50
2021/12/30 16:04:07;;;;;;;4.60;2.75;;;14.70;86.10;;;;;;5094991;28;20016;-51
2021/12/30 16:06:37;;;;;;;10.80;3.97;;;14.70;86.30;;;;;;5095542;28;20077;-48
2021/12/30 16:09:04;;;;;;;6.43;3.45;;;14.60;86.50;;;;;;5094911;28;20045;-54
2021/12/30 16:11:31;;;;;;;5.25;2.70;;;14.70;86.40;;;;;;5094053;28;20067;-51
2021/12/30 16:13:57;;;;;;;5.97;3.13;;;14.70;86.30;;;;;;5094936;28;20539;-52
2021/12/30 16:16:24;;;;;;;8.10;2.33;;;14.70;86.60;;;;;;5094575;28;20020;-48
2021/12/30 16:18:51;;;;;;;5.40;2.80;;;14.80;86.40;;;;;;5094992;28;20057;-48
2021/12/30 16:21:17;;;;;;;7.80;3.38;;;14.80;86.10;;;;;;5094715;28;20024;-48
2021/12/30 16:23:43;;;;;;;3.17;2.25;;;14.70;86.40;;;;;;5094065;28;20468;-53
2021/12/30 16:26:09;;;;;;;9.18;4.22;;;14.80;86.40;;;;;;5075776;28;20103;-49
2021/12/30 16:28:35;;;;;;;4.18;2.42;;;14.80;86.60;;;;;;5093289;28;20028;-50
2021/12/30 16:31:01;;;;;;;14.30;3.85;;;14.80;86.80;;;;;;5095148;28;20154;-52
2021/12/30 16:33:27;;;;;;;8.20;3.28;;;14.80;86.80;;;;;;5095138;28;20023;-50
2021/12/30 16:35:57;;;;;;;4.78;2.10;;;14.70;87.00;;;;;;5094056;28;20024;-50
2021/12/30 16:38:26;;;;;;;;;;;14.80;86.90;;;;;;5093994;28;20024;-48
2021/12/30 16:40:55;;;;;;;4.65;2.67;;;14.70;87.20;;;;;;5094427;28;19911;-49
2021/12/30 16:43:21;;;;;;;6.03;2.83;;;14.70;87.20;;;;;;5093306;28;20020;-48
2021/12/30 16:45:48;;;;;;;7.00;3.72;;;14.70;87.50;;;;;;5092948;28;20035;-50
2021/12/30 16:48:15;;;;;;;5.57;2.92;;;14.60;87.80;;;;;;5092985;28;20123;-48
2021/12/30 16:50:44;;;;;;;6.35;3.03;;;14.60;88.00;;;;;;5094731;28;20046;-49
2021/12/30 16:53:13;;;;;;;6.90;3.45;;;14.50;88.20;;;;;;5094477;28;20418;-49
2021/12/30 16:55:39;;;;;;;7.63;2.88;;;14.60;88.40;;;;;;5094464;28;20095;-48
2021/12/30 16:58:06;;;;;;;9.38;2.65;;;14.50;88.90;;;;;;5094189;28;20024;-48
2021/12/30 17:00:34;;;;;;;6.85;3.50;;;14.40;89.30;;;;;;5093772;28;20487;-50
2021/12/30 17:03:08;;;;;;;10.18;4.30;;;14.30;90.10;;;;;;5113430;28;20444;-50
2021/12/30 17:05:38;;;;;;;9.80;4.68;;;14.20;90.80;;;;;;5080546;28;20072;-50
2021/12/30 17:08:04;;;;;;;7.22;3.30;;;14.10;91.40;;;;;;5115029;28;20095;-49
2021/12/30 17:10:30;;;;;;;16.00;5.90;;;14.10;91.70;;;;;;5114730;28;20034;-50
2021/12/30 17:12:56;;;;;;;8.90;3.92;;;14.10;91.80;;;;;;5096317;28;20034;-49
2021/12/30 17:15:22;;;;;;;11.68;4.78;;;14.00;91.80;;;;;;5114108;28;20028;-52
2021/12/30 17:17:51;;;;;;;6.85;4.90;;;14.10;91.50;;;;;;5114341;28;20024;-54
2021/12/30 17:20:18;;;;;;;6.93;4.13;;;14.10;91.40;;;;;;5114528;28;20035;-48
2021/12/30 17:22:45;;;;;;;6.72;3.28;;;14.10;91.40;;;;;;5113890;28;20024;-47
2021/12/30 17:25:12;;;;;;;11.35;4.53;;;14.10;91.30;;;;;;5113969;28;20016;-50
2021/12/30 17:27:39;;;;;;;8.98;4.13;;;14.20;91.20;;;;;;5113527;28;20438;-50
2021/12/30 17:30:11;;;;;;;8.35;4.85;;;14.20;91.40;;;;;;5095494;28;20020;-49
2021/12/30 17:32:37;;;;;;;15.38;5.25;;;14.10;91.70;;;;;;5113667;28;20046;-49
2021/12/30 17:35:04;;;;;;;7.97;4.40;;;14.00;92.30;;;;;;5114095;28;20337;-49
2021/12/30 17:37:30;;;;;;;6.43;4.93;;;14.00;92.30;;;;;;5113715;28;20092;-49
2021/12/30 17:39:55;;;;;;;14.27;4.85;;;14.00;92.40;;;;;;5114509;28;20476;-48
2021/12/30 17:42:21;;;;;;;9.02;5.10;;;14.00;92.40;;;;;;5114155;28;20030;-50
2021/12/30 17:44:47;;;;;;;13.85;7.55;;;14.00;92.60;;;;;;5114072;28;20475;-52
2021/12/30 17:47:13;;;;;;;12.75;7.00;;;13.90;92.90;;;;;;5113986;28;20016;-48
2021/12/30 17:49:39;;;;;;;12.43;5.38;;;13.90;92.80;;;;;;5113802;28;20045;-52
2021/12/30 17:52:07;;;;;;;9.30;5.35;;;13.90;92.70;;;;;;5113178;28;20059;-52
2021/12/30 17:54:35;;;;;;;7.40;5.30;;;13.90;92.50;;;;;;5094893;28;20511;-49
2021/12/30 17:57:03;;;;;;;9.73;4.50;;;14.00;92.30;;;;;;5113420;28;20038;-53
2021/12/30 17:59:28;;;;;;;8.98;4.57;;;14.10;91.80;;;;;;5113445;28;20024;-47
2021/12/30 18:01:54;;;;;;;10.38;5.15;;;14.10;91.60;;;;;;5112911;28;20514;-50
2021/12/30 18:04:21;;;;;;;10.35;5.40;;;14.10;91.70;;;;;;5113127;28;20032;-48
2021/12/30 18:06:47;;;;;;;3.92;3.38;;;14.10;91.60;;;;;;5094903;28;20479;-50
2021/12/30 18:09:13;;;;;;;7.80;3.95;;;14.20;91.30;;;;;;5113740;28;20030;-49
2021/12/30 18:11:38;;;;;;;6.63;4.32;;;14.20;91.50;;;;;;5113429;28;20035;-48
2021/12/30 18:14:04;;;;;;;7.90;4.10;;;14.20;91.50;;;;;;5113889;28;20032;-53
2021/12/30 18:16:31;;;;;;;9.95;5.00;;;14.10;91.60;;;;;;5113340;28;20032;-48
2021/12/30 18:18:57;;;;;;;9.32;5.45;;;14.10;91.70;;;;;;5115107;28;20027;-48
2021/12/30 18:21:23;;;;;;;6.72;3.53;;;14.00;92.00;;;;;;5095711;28;20027;-48
2021/12/30 18:23:49;;;;;;;10.35;4.18;;;14.10;92.10;;;;;;5114484;28;20027;-48
2021/12/30 18:26:14;;;;;;;6.10;4.22;;;14.00;92.20;;;;;;5114461;28;20409;-53
2021/12/30 18:28:40;;;;;;;9.82;4.28;;;14.00;92.00;;;;;;5113234;28;20088;-49
2021/12/30 18:31:06;;;;;;;8.32;4.45;;;14.00;92.20;;;;;;5114079;28;20106;-51
2021/12/30 18:33:32;;;;;;;6.13;4.07;;;14.00;92.50;;;;;;5096219;28;20047;-51
2021/12/30 18:35:58;;;;;;;11.98;4.70;;;14.00;92.60;;;;;;5113403;28;20032;-49
2021/12/30 18:38:25;;;;;;;9.20;5.03;;;14.00;92.50;;;;;;5113672;28;20051;-51
2021/12/30 18:40:52;;;;;;;11.02;5.38;;;14.00;92.50;;;;;;5113780;28;20022;-50
2021/12/30 18:43:19;;;;;;;8.43;5.30;;;14.00;92.40;;;;;;5113133;28;20047;-49
2021/12/30 18:45:45;;;;;;;12.77;5.68;;;14.00;92.30;;;;;;5113226;28;20519;-49
2021/12/30 18:48:11;;;;;;;11.73;6.90;;;14.00;92.30;;;;;;5116001;28;20054;-49
2021/12/30 18:50:39;;;;;;;12.85;6.00;;;14.00;92.40;;;;;;5118146;28;20031;-48
2021/12/30 18:53:06;;;;;;;14.95;6.53;;;14.00;92.50;;;;;;5099322;28;20114;-51
2021/12/30 18:55:32;;;;;;;9.48;6.30;;;14.00;92.60;;;;;;5117707;28;20039;-50
2021/12/30 18:58:01;;;;;;;9.18;6.85;;;14.00;92.80;;;;;;5117490;28;20019;-49
2021/12/30 19:00:33;;;;;;;12.30;7.07;;;14.00;93.00;;;;;;5117700;28;20027;-49
2021/12/30 19:03:00;;;;;;;13.98;8.25;;;13.80;93.50;;;;;;5117741;28;20047;-52
2021/12/30 19:05:28;;;;;;;12.85;8.52;;;13.80;93.60;;;;;;5100059;28;20031;-51
2021/12/30 19:07:54;;;;;;;8.40;6.35;;;13.80;93.70;;;;;;5117569;28;20031;-48
2021/12/30 19:10:21;;;;;;;10.98;6.95;;;13.80;94.00;;;;;;5099857;28;20417;-48
2021/12/30 19:12:49;;;;;;;12.73;8.25;;;13.70;94.30;;;;;;5117160;28;20051;-47
2021/12/30 19:15:21;;;;;;;20.45;7.20;;;13.70;94.70;;;;;;5118392;28;20378;-49
2021/12/30 19:17:48;;;;;;;9.68;6.47;;;13.70;94.50;;;;;;5117524;28;20434;-47
2021/12/30 19:20:18;;;;;;;16.17;7.18;;;13.70;94.40;;;;;;5116808;28;20074;-50
2021/12/30 19:22:45;;;;;;;13.02;7.13;;;13.70;94.40;;;;;;5117894;28;20110;-47
2021/12/30 19:25:12;;;;;;;16.63;6.15;;;13.70;94.10;;;;;;5097361;28;20031;-48
2021/12/30 19:27:37;;;;;;;13.88;6.65;;;13.80;94.10;;;;;;5116956;28;20023;-48
2021/12/30 19:30:05;;;;;;;12.10;6.30;;;13.80;93.90;;;;;;5116961;28;20475;-50
2021/12/30 19:32:31;;;;;;;10.32;5.75;;;13.80;93.80;;;;;;5116086;28;20030;-51
2021/12/30 19:34:57;;;;;;;13.70;7.45;;;13.80;93.50;;;;;;5117849;28;20039;-49
2021/12/30 19:37:22;;;;;;;8.32;4.60;;;13.80;93.30;;;;;;5116689;28;20031;-51
2021/12/30 19:39:51;;;;;;;6.53;4.60;;;13.90;93.10;;;;;;5116875;28;20032;-50
2021/12/30 19:42:18;;;;;;;9.88;5.32;;;13.90;92.80;;;;;;5097838;28;20172;-49
2021/12/30 19:44:44;;;;;;;7.47;4.32;;;14.00;92.60;;;;;;5117432;28;20080;-50
2021/12/30 19:47:11;;;;;;;5.55;4.68;;;14.00;92.40;;;;;;5097615;28;20040;-49
2021/12/30 19:49:37;;;;;;;10.52;4.70;;;14.00;92.40;;;;;;5116327;28;20028;-48
2021/12/30 19:52:03;;;;;;;12.20;4.72;;;14.10;92.10;;;;;;5115758;28;20034;-49
2021/12/30 19:54:29;;;;;;;8.73;4.88;;;14.10;91.90;;;;;;5097271;28;20033;-50
2021/12/30 19:56:55;;;;;;;6.82;4.57;;;14.10;91.80;;;;;;5115750;28;20469;-48
2021/12/30 19:59:21;;;;;;;8.82;3.58;;;14.10;91.60;;;;;;5115530;28;20030;-47
2021/12/30 20:01:47;;;;;;;9.35;4.60;;;14.10;91.40;;;;;;5076851;28;20143;-52
2021/12/30 20:04:13;;;;;;;9.18;5.95;;;14.10;91.40;;;;;;5095177;28;20502;-49
2021/12/30 20:06:39;;;;;;;6.85;3.95;;;14.20;91.40;;;;;;5094141;28;20032;-49
2021/12/30 20:09:06;;;;;;;3.88;3.15;;;14.20;91.60;;;;;;5096777;28;20016;-49
2021/12/30 20:11:33;;;;;;;10.68;4.57;;;14.10;91.60;;;;;;5096112;28;20024;-50
2021/12/30 20:13:59;;;;;;;7.30;3.72;;;14.10;91.70;;;;;;5096386;28;20149;-48
2021/12/30 20:16:25;;;;;;;8.27;4.80;;;14.10;91.80;;;;;;5095041;28;20031;-48
2021/12/30 20:18:52;;;;;;;10.10;4.70;;;14.00;92.10;;;;;;5095189;28;20077;-48
2021/12/30 20:21:18;;;;;;;12.70;4.78;;;14.00;92.80;;;;;;5096190;28;20050;-48
2021/12/30 20:23:44;;;;;;;10.30;5.22;;;13.90;92.80;;;;;;5095850;28;20412;-37
2021/12/30 20:26:10;;;;;;;10.30;4.70;;;14.00;92.80;;;;;;5094845;28;20108;-37
2021/12/30 20:28:36;;;;;;;9.70;5.72;;;13.90;93.20;;;;;;5095097;28;20032;-37
2021/12/30 20:31:02;;;;;;;7.38;4.38;;;13.80;93.80;;;;;;5093286;28;20020;-37
2021/12/30 20:33:29;;;;;;;7.82;5.40;;;13.70;94.40;;;;;;5093874;28;20024;-37
2021/12/30 20:35:55;;;;;;;10.77;5.38;;;13.50;95.00;;;;;;5094871;28;20107;-37
2021/12/30 20:38:21;;;;;;;9.15;6.97;;;13.50;95.70;;;;;;5093544;28;20066;-37
2021/12/30 20:40:48;;;;;;;10.55;7.28;;;13.40;95.90;;;;;;5094562;28;20034;-39
2021/12/30 20:43:16;;;;;;;10.00;5.90;;;13.40;96.10;;;;;;5094620;28;20035;-37
2021/12/30 20:45:43;;;;;;;8.90;4.97;;;13.30;96.20;;;;;;5094992;28;20078;-38
2021/12/30 20:48:09;;;;;;;11.43;7.53;;;13.30;96.20;;;;;;5094250;28;20035;-39
2021/12/30 20:50:37;;;;;;;11.15;8.07;;;13.30;96.20;;;;;;5094320;28;20058;-38
2021/12/30 20:53:05;;;;;;;8.10;7.03;;;13.30;96.30;;;;;;5094150;28;20495;-38
2021/12/30 20:55:34;;;;;;;11.23;8.25;;;13.30;96.30;;;;;;5095284;28;20468;-38
2021/12/30 20:58:02;;;;;;;16.13;8.80;;;13.30;96.20;;;;;;5094922;28;20097;-38
2021/12/30 21:00:28;;;;;;;11.32;8.73;;;13.30;96.00;;;;;;5094573;28;20035;-37
2021/12/30 21:02:55;;;;;;;7.38;6.60;;;13.40;95.70;;;;;;5114702;28;20126;-37
2021/12/30 21:05:22;;;;;;;14.25;7.70;;;13.40;95.50;;;;;;5115586;28;20053;-37
2021/12/30 21:07:48;;;;;;;7.65;6.22;;;13.50;95.10;;;;;;5114606;28;20033;-37
2021/12/30 21:10:17;;;;;;;9.48;6.88;;;13.50;95.10;;;;;;5114373;28;20475;-39
2021/12/30 21:12:43;;;;;;;10.52;7.43;;;13.50;94.80;;;;;;5113659;28;20028;-38
2021/12/30 21:15:10;;;;;;;10.20;6.30;;;13.60;94.80;;;;;;5114371;28;20028;-37
2021/12/30 21:17:37;;;;;;;13.13;6.55;;;13.60;94.50;;;;;;5115774;28;20024;-37
2021/12/30 21:20:08;;;;;;;9.00;6.72;;;13.60;94.20;;;;;;5097892;28;20028;-37
2021/12/30 21:22:36;;;;;;;8.75;4.93;;;13.70;93.90;;;;;;5114324;28;20024;-37
2021/12/30 21:25:02;;;;;;;6.47;5.03;;;13.70;93.90;;;;;;5114973;28;20023;-37
2021/12/30 21:27:29;;;;;;;5.15;4.20;;;13.70;93.80;;;;;;5097072;28;20483;-38
2021/12/30 21:29:55;;;;;;;7.18;4.50;;;13.70;93.50;;;;;;5116429;28;20375;-38
2021/12/30 21:32:21;;;;;;;8.50;4.72;;;13.80;93.20;;;;;;5115130;28;20030;-37
2021/12/30 21:34:47;;;;;;;5.53;3.83;;;13.80;93.10;;;;;;5114065;28;20027;-37
2021/12/30 21:37:13;;;;;;;8.10;4.97;;;13.80;92.90;;;;;;5114541;28;20024;-38
2021/12/30 21:39:38;;;;;;;8.48;4.25;;;13.80;92.70;;;;;;5115300;28;20024;-37
2021/12/30 21:42:05;;;;;;;8.20;4.25;;;13.90;92.50;;;;;;5114396;28;20020;-37
2021/12/30 21:44:32;;;;;;;7.60;3.33;;;13.80;92.60;;;;;;5114834;28;20028;-37
2021/12/30 21:46:58;;;;;;;7.68;4.63;;;13.80;92.40;;;;;;5096655;28;20019;-39
2021/12/30 21:49:24;;;;;;;6.68;4.00;;;13.80;92.60;;;;;;5095908;28;20430;-37
2021/12/30 21:51:50;;;;;;;9.32;4.30;;;13.70;93.20;;;;;;5114706;28;20027;-38
2021/12/30 21:54:15;;;;;;;7.43;4.75;;;13.60;93.90;;;;;;5114011;28;20027;-37
2021/12/30 21:56:41;;;;;;;6.90;4.55;;;13.50;94.40;;;;;;5115207;28;20027;-38
2021/12/30 21:59:07;;;;;;;9.80;5.38;;;13.50;94.40;;;;;;5113902;28;20028;-37
2021/12/30 22:01:33;;;;;;;7.78;5.50;;;13.50;94.50;;;;;;5095372;28;20052;-38
2021/12/30 22:03:59;;;;;;;11.48;5.75;;;13.40;94.70;;;;;;5114619;28;20023;-37
2021/12/30 22:06:24;;;;;;;11.70;7.57;;;13.40;94.80;;;;;;5115208;28;20357;-38
2021/12/30 22:08:50;;;;;;;8.80;5.30;;;13.40;94.40;;;;;;5115265;28;20028;-38
2021/12/30 22:11:15;;;;;;;8.63;5.85;;;13.50;94.20;;;;;;5096022;28;20537;-38
2021/12/30 22:13:41;;;;;;;10.88;5.88;;;13.50;93.90;;;;;;5113776;28;20028;-38
2021/12/30 22:16:07;;;;;;;13.55;7.68;;;13.60;93.60;;;;;;5114483;28;20044;-38
2021/12/30 22:18:33;;;;;;;6.88;5.00;;;13.60;93.50;;;;;;5113821;28;20102;-38
2021/12/30 22:21:02;;;;;;;9.10;4.38;;;13.60;93.20;;;;;;5113609;28;20024;-37
2021/12/30 22:23:28;;;;;;;8.13;4.10;;;13.70;93.20;;;;;;5115204;28;20375;-37
2021/12/30 22:25:56;;;;;;;5.50;4.30;;;13.60;93.40;;;;;;5118460;28;20024;-38
2021/12/30 22:28:24;;;;;;;4.65;3.03;;;13.50;93.50;;;;;;5118933;28;20026;-38
2021/12/30 22:30:51;;;;;;;8.15;3.70;;;13.60;93.20;;;;;;5118319;28;20050;-38
2021/12/30 22:33:18;;;;;;;3.30;2.92;;;13.60;93.10;;;;;;5118003;28;20076;-39
2021/12/30 22:35:44;;;;;;;7.60;3.45;;;13.60;92.90;;;;;;5117835;28;20417;-38
2021/12/30 22:38:10;;;;;;;7.70;4.00;;;13.70;92.80;;;;;;5099824;28;20114;-38
2021/12/30 22:40:35;;;;;;;6.13;3.22;;;13.70;92.70;;;;;;5118440;28;20060;-38
2021/12/30 22:43:02;;;;;;;6.40;3.97;;;13.70;92.50;;;;;;5117597;28;20032;-38